createdAt,value
2023-02-14T00:01:44.965Z,0.30
2023-02-14T00:04:19.952Z,0.80
2023-02-14T00:06:55.075Z,0.20
2023-02-14T00:09:28.652Z,0.50
2023-02-14T00:12:02.439Z,0.30
2023-02-14T00:14:54.669Z,0.30
2023-02-14T00:17:28.859Z,0.70
2023-02-14T00:20:03.389Z,0.40
2023-02-14T00:22:38.178Z,0.30
2023-02-14T00:25:12.146Z,0.40
2023-02-14T00:27:45.655Z,0.30
2023-02-14T00:30:20.185Z,0.50
2023-02-14T00:32:53.724Z,0.50
2023-02-14T00:35:29.042Z,0.40
2023-02-14T00:38:05.075Z,0.50
2023-02-14T00:40:38.774Z,0.30
2023-02-14T00:43:12.598Z,0.30
2023-02-14T00:45:46.181Z,0.30
2023-02-14T00:48:21.865Z,0.40
2023-02-14T00:50:55.921Z,0.70
2023-02-14T00:53:31.091Z,0.30
2023-02-14T00:56:08.364Z,0.20
2023-02-14T00:58:42.624Z,0.40
2023-02-14T01:01:20.532Z,0.30
2023-02-14T01:03:54.682Z,0.20
2023-02-14T01:06:28.909Z,0.60
2023-02-14T01:09:03.008Z,0.30
2023-02-14T01:11:37.140Z,0.60
2023-02-14T01:14:11.403Z,0.20
2023-02-14T01:16:45.543Z,0.30
2023-02-14T01:19:19.173Z,0.30
2023-02-14T01:21:52.799Z,0.40
2023-02-14T01:24:27.596Z,0.30
2023-02-14T01:27:01.241Z,0.40
2023-02-14T01:29:35.112Z,0.60
2023-02-14T01:32:09.056Z,0.20
2023-02-14T01:34:45.992Z,0.20
2023-02-14T01:37:21.359Z,0.20
2023-02-14T01:39:55.262Z,0.10
2023-02-14T01:42:29.158Z,0.40
2023-02-14T01:45:06.232Z,0.40
2023-02-14T01:47:42.301Z,0.50
2023-02-14T01:50:19.902Z,0.60
2023-02-14T01:52:56.026Z,0.30
2023-02-14T01:55:35.175Z,0.50
2023-02-14T01:58:11.761Z,0.60
2023-02-14T02:01:00.488Z,0.80
2023-02-14T02:03:37.452Z,0.50
2023-02-14T02:06:16.460Z,0.20
2023-02-14T02:08:56.000Z,0.30
2023-02-14T02:11:29.823Z,0.30
2023-02-14T02:14:03.737Z,0.50
2023-02-14T02:16:52.752Z,0.50
2023-02-14T02:19:50.999Z,0.50
2023-02-14T02:23:03.937Z,0.70
2023-02-14T02:25:54.133Z,1.10
2023-02-14T02:28:52.698Z,1.10
2023-02-14T02:31:41.844Z,3.80
2023-02-14T02:34:43.593Z,3.70
2023-02-14T02:37:27.785Z,1.10
2023-02-14T02:40:23.498Z,0.60
2023-02-14T02:43:03.852Z,0.90
2023-02-14T02:46:04.109Z,0.80
2023-02-14T02:48:42.858Z,0.90
2023-02-14T02:51:39.336Z,1.00
2023-02-14T02:54:15.559Z,1.10
2023-02-14T02:56:54.322Z,0.50
2023-02-14T02:59:31.074Z,1.50
2023-02-14T03:02:10.074Z,1.00
2023-02-14T03:04:56.851Z,1.10
2023-02-14T03:07:38.217Z,0.80
2023-02-14T03:10:16.734Z,1.30
2023-02-14T03:13:26.374Z,0.30
2023-02-14T03:16:12.951Z,0.20
2023-02-14T03:18:59.795Z,2.30
2023-02-14T03:21:36.582Z,1.30
2023-02-14T03:24:15.963Z,2.10
2023-02-14T03:26:52.730Z,2.10
2023-02-14T03:32:06.338Z,0.70
2023-02-14T03:34:44.353Z,0.60
2023-02-14T03:37:19.998Z,0.80
2023-02-14T03:40:03.473Z,2.00
2023-02-14T03:42:40.395Z,0.70
2023-02-14T03:45:19.241Z,1.20
2023-02-14T03:47:55.037Z,0.70
2023-02-14T03:50:28.990Z,0.60
2023-02-14T03:53:05.516Z,1.70
2023-02-14T03:55:46.275Z,1.40
2023-02-14T03:58:22.969Z,1.90
2023-02-14T04:00:59.897Z,1.40
2023-02-14T04:03:34.800Z,1.70
2023-02-14T04:06:09.498Z,1.40
2023-02-14T04:08:43.131Z,0.80
2023-02-14T04:11:18.133Z,0.60
2023-02-14T04:13:51.949Z,0.90
2023-02-14T04:16:26.075Z,1.10
2023-02-14T04:19:17.052Z,1.00
2023-02-14T04:21:52.696Z,0.90
2023-02-14T04:24:26.515Z,1.00
2023-02-14T04:27:14.580Z,1.10
2023-02-14T04:29:50.350Z,0.70
2023-02-14T04:32:25.682Z,1.20
2023-02-14T04:35:00.215Z,1.10
2023-02-14T04:37:34.178Z,0.70
2023-02-14T04:40:09.187Z,1.00
2023-02-14T04:42:43.229Z,0.30
2023-02-14T04:45:17.726Z,0.80
2023-02-14T04:47:51.536Z,1.40
2023-02-14T04:50:26.422Z,1.00
2023-02-14T04:53:00.511Z,2.10
2023-02-14T04:55:33.990Z,0.70
2023-02-14T04:58:07.508Z,0.50
2023-02-14T05:00:42.465Z,0.60
2023-02-14T05:03:16.158Z,0.90
2023-02-14T05:05:50.008Z,1.60
2023-02-14T05:08:25.103Z,1.00
2023-02-14T05:11:00.061Z,1.10
2023-02-14T05:13:34.012Z,1.20
2023-02-14T05:16:09.748Z,0.70
2023-02-14T05:18:43.360Z,1.10
2023-02-14T05:21:17.352Z,1.20
2023-02-14T05:23:52.629Z,1.00
2023-02-14T05:26:26.607Z,1.30
2023-02-14T05:29:00.513Z,4.80
2023-02-14T05:31:34.641Z,1.70
2023-02-14T05:34:09.920Z,0.90
2023-02-14T05:36:44.355Z,1.40
2023-02-14T05:39:18.656Z,1.10
2023-02-14T05:41:53.960Z,1.60
2023-02-14T05:44:28.493Z,1.10
2023-02-14T05:47:03.256Z,1.40
2023-02-14T05:49:38.507Z,1.00
2023-02-14T05:52:13.476Z,1.20
2023-02-14T05:54:49.336Z,1.00
2023-02-14T05:57:23.232Z,0.60
2023-02-14T05:59:57.177Z,1.50
2023-02-14T06:02:34.311Z,1.20
2023-02-14T06:07:40.198Z,1.50
2023-02-14T06:10:15.045Z,2.90
2023-02-14T06:12:49.853Z,1.40
2023-02-14T06:15:23.926Z,2.10
2023-02-14T06:17:58.892Z,1.60
2023-02-14T06:20:33.210Z,1.50
2023-02-14T06:23:07.228Z,1.80
2023-02-14T06:25:40.813Z,1.50
2023-02-14T06:28:14.644Z,1.40
2023-02-14T06:30:49.939Z,1.60
2023-02-14T06:33:24.118Z,0.70
2023-02-14T06:35:58.811Z,1.70
2023-02-14T06:38:32.519Z,2.40
2023-02-14T06:41:09.104Z,1.20
2023-02-14T06:43:43.009Z,1.30
2023-02-14T06:46:16.721Z,1.00
2023-02-14T06:48:50.509Z,0.70
2023-02-14T06:51:24.166Z,1.20
2023-02-14T06:53:57.745Z,0.80
2023-02-14T06:56:31.625Z,1.10
2023-02-14T06:59:05.668Z,0.70
2023-02-14T07:01:39.673Z,0.60
2023-02-14T07:04:13.361Z,0.60
2023-02-14T07:06:47.351Z,0.50
2023-02-14T07:09:21.114Z,0.60
2023-02-14T07:11:55.519Z,0.40
2023-02-14T07:14:29.343Z,0.90
2023-02-14T07:17:03.661Z,0.20
2023-02-14T07:19:37.350Z,0.20
2023-02-14T07:22:11.358Z,0.30
2023-02-14T07:24:45.083Z,0.20
2023-02-14T07:27:18.861Z,0.60
2023-02-14T07:29:52.880Z,0.30
2023-02-14T07:32:26.474Z,0.50
2023-02-14T07:35:00.402Z,0.40
2023-02-14T07:37:35.527Z,0.30
2023-02-14T07:40:14.971Z,0.30
2023-02-14T07:42:51.274Z,0.40
2023-02-14T07:45:25.179Z,0.70
2023-02-14T07:48:05.448Z,0.60
2023-02-14T07:50:39.270Z,1.40
2023-02-14T07:53:13.075Z,0.60
2023-02-14T07:55:52.618Z,0.70
2023-02-14T07:58:26.285Z,0.50
2023-02-14T08:01:00.548Z,0.40
2023-02-14T08:03:34.430Z,0.40
2023-02-14T08:06:11.334Z,0.50
2023-02-14T08:08:45.066Z,0.60
2023-02-14T08:11:33.734Z,0.30
2023-02-14T08:14:07.944Z,1.60
2023-02-14T08:16:41.842Z,0.70
2023-02-14T08:19:16.006Z,0.20
2023-02-14T08:21:49.820Z,0.90
2023-02-14T08:24:23.619Z,0.70
2023-02-14T08:26:57.251Z,0.60
2023-02-14T08:29:31.466Z,0.70
2023-02-14T08:32:05.831Z,0.70
2023-02-14T08:34:39.883Z,0.60
2023-02-14T08:37:13.772Z,0.60
2023-02-14T08:39:48.605Z,0.60
2023-02-14T08:42:22.237Z,1.00
2023-02-14T08:44:59.292Z,1.00
2023-02-14T08:47:36.300Z,0.90
2023-02-14T08:50:12.858Z,1.30
2023-02-14T08:52:55.041Z,0.60
2023-02-14T08:55:30.624Z,1.00
2023-02-14T08:58:05.594Z,0.80
2023-02-14T09:00:41.523Z,0.70
2023-02-14T09:03:15.743Z,0.50
2023-02-14T09:05:50.412Z,0.60
2023-02-14T09:08:24.626Z,0.90
2023-02-14T09:10:59.160Z,1.00
2023-02-14T09:13:33.900Z,1.30
2023-02-14T09:16:10.893Z,1.10
2023-02-14T09:18:45.093Z,1.20
2023-02-14T09:21:20.531Z,0.90
2023-02-14T09:23:55.219Z,0.90
2023-02-14T09:26:29.729Z,1.10
2023-02-14T09:29:03.722Z,0.40
2023-02-14T09:31:41.828Z,1.20
2023-02-14T09:34:16.425Z,1.00
2023-02-14T09:37:07.746Z,0.60
2023-02-14T09:39:42.450Z,1.20
2023-02-14T09:42:29.671Z,0.80
2023-02-14T09:45:08.866Z,0.70
2023-02-14T09:47:48.682Z,0.50
2023-02-14T09:50:28.141Z,0.50
2023-02-14T09:53:11.243Z,0.70
2023-02-14T09:55:51.372Z,0.60
2023-02-14T09:58:31.991Z,1.10
2023-02-14T10:01:15.769Z,0.70
2023-02-14T10:04:01.092Z,1.20
2023-02-14T10:06:52.160Z,1.20
2023-02-14T10:09:54.939Z,1.20
2023-02-14T10:12:33.589Z,0.90
2023-02-14T10:15:14.866Z,1.10
2023-02-14T10:17:51.028Z,0.90
2023-02-14T10:20:32.196Z,1.10
2023-02-14T10:23:22.772Z,0.70
2023-02-14T10:26:03.162Z,0.80
2023-02-14T10:28:39.750Z,0.80
2023-02-14T10:31:37.412Z,0.70
2023-02-14T10:34:18.486Z,0.40
2023-02-14T10:37:16.199Z,1.00
2023-02-14T10:40:02.427Z,0.50
2023-02-14T10:42:43.675Z,0.80
2023-02-14T10:45:23.216Z,0.70
2023-02-14T10:48:03.243Z,1.10
2023-02-14T10:50:47.052Z,1.00
2023-02-14T10:53:25.157Z,0.70
2023-02-14T10:56:02.464Z,0.40
2023-02-14T10:58:38.157Z,0.90
2023-02-14T11:01:14.949Z,0.90
2023-02-14T11:06:23.534Z,0.80
2023-02-14T11:08:57.692Z,1.10
2023-02-14T11:11:34.176Z,1.00
2023-02-14T11:14:23.358Z,0.80
2023-02-14T11:16:59.865Z,1.80
2023-02-14T11:19:39.507Z,0.90
2023-02-14T11:22:14.593Z,0.60
2023-02-14T11:24:48.893Z,0.80
2023-02-14T11:27:23.500Z,0.80
2023-02-14T11:29:57.051Z,1.30
2023-02-14T11:32:32.158Z,1.20
2023-02-14T11:35:09.755Z,0.70
2023-02-14T11:37:51.578Z,1.10
2023-02-14T11:40:33.531Z,0.80
2023-02-14T11:43:31.553Z,1.00
2023-02-14T11:46:27.488Z,1.60
2023-02-14T11:49:03.543Z,1.60
2023-02-14T11:51:41.101Z,1.20
2023-02-14T11:54:25.052Z,1.60
2023-02-14T11:57:03.676Z,1.00
2023-02-14T11:59:43.402Z,2.00
2023-02-14T12:02:28.646Z,2.10
2023-02-14T12:05:03.974Z,1.30
2023-02-14T12:07:39.766Z,1.20
2023-02-14T12:10:24.295Z,1.30
2023-02-14T12:13:01.958Z,1.70
2023-02-14T12:15:41.195Z,1.90
2023-02-14T12:18:39.898Z,1.60
2023-02-14T12:21:43.532Z,1.60
2023-02-14T12:24:25.757Z,0.90
2023-02-14T12:27:07.333Z,1.60
2023-02-14T12:29:43.864Z,1.50
2023-02-14T12:32:25.397Z,1.00
2023-02-14T12:35:05.753Z,1.30
2023-02-14T12:37:48.770Z,0.70
2023-02-14T12:40:34.082Z,1.30
2023-02-14T12:43:32.313Z,1.00
2023-02-14T12:46:19.569Z,1.20
2023-02-14T12:49:03.666Z,1.20
2023-02-14T12:51:41.770Z,1.00
2023-02-14T12:54:30.294Z,1.00
2023-02-14T12:57:10.143Z,0.90
2023-02-14T12:59:48.917Z,0.70
2023-02-14T13:02:44.835Z,0.90
2023-02-14T13:05:24.797Z,0.30
2023-02-14T13:08:09.573Z,1.00
2023-02-14T13:10:52.637Z,0.70
2023-02-14T13:13:33.810Z,0.60
2023-02-14T13:16:16.834Z,0.50
2023-02-14T13:18:55.873Z,0.80
2023-02-14T13:21:32.785Z,0.80
2023-02-14T13:24:15.033Z,1.00
2023-02-14T13:26:50.440Z,0.60
2023-02-14T13:29:30.535Z,1.00
2023-02-14T13:32:06.820Z,1.30
2023-02-14T13:34:44.139Z,0.80
2023-02-14T13:37:20.370Z,1.40
2023-02-14T13:39:56.517Z,1.00
2023-02-14T13:42:59.438Z,1.40
2023-02-14T13:46:07.200Z,1.00
2023-02-14T13:48:40.939Z,1.60
2023-02-14T13:51:15.650Z,1.20
2023-02-14T13:53:53.397Z,0.90
2023-02-14T13:56:38.582Z,1.80
2023-02-14T13:59:30.275Z,1.60
2023-02-14T14:02:42.393Z,1.40
2023-02-14T14:06:04.374Z,0.80
2023-02-14T14:08:48.489Z,2.00
2023-02-14T14:11:56.143Z,1.10
2023-02-14T14:14:38.714Z,0.90
2023-02-14T14:17:29.301Z,1.60
2023-02-14T14:20:04.356Z,1.20
2023-02-14T14:22:50.847Z,0.70
2023-02-14T14:25:37.796Z,1.00
2023-02-14T14:28:19.363Z,2.30
2023-02-14T14:30:53.590Z,2.10
2023-02-14T14:33:33.475Z,1.00
2023-02-14T14:36:09.318Z,1.90
2023-02-14T14:38:55.230Z,2.00
2023-02-14T14:41:33.771Z,1.20
2023-02-14T14:44:09.020Z,1.30
2023-02-14T14:46:42.879Z,1.00
2023-02-14T14:49:17.279Z,2.10
2023-02-14T14:51:52.078Z,1.50
2023-02-14T14:54:27.964Z,1.10
2023-02-14T14:57:04.436Z,1.30
2023-02-14T14:59:41.292Z,1.40
2023-02-14T15:02:32.534Z,1.70
2023-02-14T15:05:20.336Z,1.60
2023-02-14T15:07:54.242Z,0.90
2023-02-14T15:10:30.344Z,1.30
2023-02-14T15:13:20.987Z,1.30
2023-02-14T15:15:56.130Z,1.30
2023-02-14T15:18:29.894Z,1.50
2023-02-14T15:21:04.427Z,1.50
2023-02-14T15:23:40.220Z,0.90
2023-02-14T15:26:20.635Z,2.00
2023-02-14T15:29:00.888Z,2.50
2023-02-14T15:31:37.084Z,1.70
2023-02-14T15:34:14.150Z,1.90
2023-02-14T15:36:52.609Z,2.50
2023-02-14T15:39:29.305Z,2.20
2023-02-14T15:42:03.328Z,1.30
2023-02-14T15:44:38.529Z,1.70
2023-02-14T15:47:17.596Z,1.40
2023-02-14T15:49:52.404Z,1.30
2023-02-14T15:52:26.772Z,1.70
2023-02-14T15:55:01.099Z,1.80
2023-02-14T15:57:37.495Z,2.40
2023-02-14T16:00:20.885Z,1.70
2023-02-14T16:02:57.386Z,2.20
2023-02-14T16:05:34.451Z,2.30
2023-02-14T16:08:09.994Z,1.40
2023-02-14T16:10:45.240Z,2.00
2023-02-14T16:13:27.867Z,1.40
2023-02-14T16:16:05.677Z,2.00
2023-02-14T16:18:42.756Z,2.70
2023-02-14T16:21:20.275Z,2.40
2023-02-14T16:24:15.379Z,2.70
2023-02-14T16:26:50.478Z,4.00
2023-02-14T16:29:24.314Z,3.60
2023-02-14T16:32:15.153Z,4.40
2023-02-14T16:34:51.206Z,4.90
2023-02-14T16:37:30.051Z,5.40
2023-02-14T16:40:04.922Z,5.50
2023-02-14T16:42:39.606Z,6.70
2023-02-14T16:45:19.240Z,4.60
2023-02-14T16:47:53.612Z,4.60
2023-02-14T16:50:31.173Z,4.20
2023-02-14T16:53:05.572Z,4.20
2023-02-14T16:55:39.624Z,3.50
2023-02-14T16:58:17.350Z,4.10
2023-02-14T17:00:56.635Z,4.30
2023-02-14T17:03:34.723Z,3.30
2023-02-14T17:06:10.232Z,2.70
2023-02-14T17:08:48.464Z,3.50
2023-02-14T17:11:29.608Z,4.00
2023-02-14T17:14:04.812Z,4.50
2023-02-14T17:16:38.508Z,4.40
2023-02-14T17:19:14.094Z,4.10
2023-02-14T17:21:49.108Z,3.90
2023-02-14T17:24:23.057Z,3.90
2023-02-14T17:26:58.886Z,4.00
2023-02-14T17:29:32.689Z,3.80
2023-02-14T17:32:06.935Z,4.10
2023-02-14T17:34:41.367Z,4.30
2023-02-14T17:37:15.135Z,4.70
2023-02-14T17:39:49.603Z,4.00
2023-02-14T17:42:25.866Z,3.60
2023-02-14T17:45:00.504Z,4.20
2023-02-14T17:47:34.878Z,4.20
2023-02-14T17:50:13.056Z,5.10
2023-02-14T17:52:46.980Z,5.70
2023-02-14T17:55:20.890Z,5.20
2023-02-14T17:57:56.828Z,5.50
2023-02-14T18:00:30.434Z,6.50
2023-02-14T18:03:05.129Z,4.80
2023-02-14T18:05:41.231Z,6.30
2023-02-14T18:08:15.179Z,4.80
2023-02-14T18:10:49.372Z,6.00
2023-02-14T18:13:23.923Z,4.40
2023-02-14T18:15:57.812Z,3.90
2023-02-14T18:18:32.089Z,3.20
2023-02-14T18:21:07.990Z,3.40
2023-02-14T18:23:42.446Z,5.00
2023-02-14T18:26:18.517Z,3.50
2023-02-14T18:28:52.737Z,3.90
2023-02-14T18:31:28.665Z,4.10
2023-02-14T18:34:03.575Z,4.10
2023-02-14T18:36:41.205Z,4.30
2023-02-14T18:41:47.259Z,4.50
2023-02-14T18:44:25.342Z,4.80
2023-02-14T18:47:01.731Z,5.00
2023-02-14T18:49:36.114Z,4.60
2023-02-14T18:52:12.668Z,4.20
2023-02-14T18:54:47.590Z,4.10
2023-02-14T18:59:56.657Z,2.80
2023-02-14T19:02:31.239Z,4.20
2023-02-14T19:05:05.102Z,4.00
2023-02-14T19:07:39.014Z,4.10
2023-02-14T19:10:15.021Z,4.00
2023-02-14T19:12:48.901Z,6.30
2023-02-14T19:15:23.036Z,4.90
2023-02-14T19:17:58.172Z,4.20
2023-02-14T19:20:32.771Z,4.20
2023-02-14T19:23:09.375Z,3.80
2023-02-14T19:25:43.620Z,4.10
2023-02-14T19:28:17.919Z,3.70
2023-02-14T19:30:51.985Z,3.70
2023-02-14T19:33:26.251Z,4.00
2023-02-14T19:36:09.898Z,3.60
2023-02-14T19:38:45.518Z,3.20
2023-02-14T19:41:21.173Z,3.40
2023-02-14T19:43:57.248Z,4.30
2023-02-14T19:46:32.574Z,2.20
2023-02-14T19:49:06.813Z,2.60
2023-02-14T19:51:43.436Z,3.20
2023-02-14T19:54:18.712Z,2.70
2023-02-14T19:56:54.288Z,4.00
2023-02-14T19:59:28.388Z,4.00
2023-02-14T20:02:02.299Z,4.50
2023-02-14T20:04:37.498Z,3.70
2023-02-14T20:07:11.033Z,4.30
2023-02-14T20:09:45.416Z,3.60
2023-02-14T20:12:22.240Z,3.20
2023-02-14T20:14:57.225Z,3.70
2023-02-14T20:17:31.129Z,3.90
2023-02-14T20:20:08.470Z,3.10
2023-02-14T20:22:43.902Z,3.00
2023-02-14T20:25:17.494Z,3.80
2023-02-14T20:27:53.931Z,2.80
2023-02-14T20:30:28.126Z,3.00
2023-02-14T20:33:02.065Z,2.10
2023-02-14T20:35:40.866Z,2.30
2023-02-14T20:38:17.107Z,2.70
2023-02-14T20:40:51.609Z,3.60
2023-02-14T20:43:27.266Z,3.10
2023-02-14T20:46:03.925Z,2.50
2023-02-14T20:48:38.030Z,2.90
2023-02-14T20:51:16.914Z,2.50
2023-02-14T20:53:51.017Z,3.20
2023-02-14T20:56:25.180Z,3.90
2023-02-14T20:58:59.118Z,3.50
2023-02-14T21:01:32.983Z,3.30
2023-02-14T21:04:06.876Z,2.70
2023-02-14T21:06:44.446Z,2.80
2023-02-14T21:09:19.350Z,2.60
2023-02-14T21:11:54.327Z,2.30
2023-02-14T21:14:28.818Z,2.20
2023-02-14T21:17:05.223Z,3.20
2023-02-14T21:19:40.216Z,2.70
2023-02-14T21:22:16.342Z,2.70
2023-02-14T21:24:50.280Z,3.00
2023-02-14T21:27:24.111Z,2.10
2023-02-14T21:29:57.729Z,3.10
2023-02-14T21:32:34.233Z,2.80
2023-02-14T21:35:08.444Z,3.10
2023-02-14T21:37:43.953Z,2.90
2023-02-14T21:40:18.158Z,3.40
2023-02-14T21:42:51.809Z,2.70
2023-02-14T21:45:58.589Z,3.00
2023-02-14T21:48:49.460Z,3.40
2023-02-14T21:51:23.201Z,2.50
2023-02-14T21:53:57.099Z,3.00
2023-02-14T21:56:32.378Z,7.70
2023-02-14T21:59:06.076Z,5.40
2023-02-14T22:01:41.842Z,7.20
2023-02-14T22:04:16.678Z,3.20
2023-02-14T22:06:50.279Z,2.40
2023-02-14T22:09:26.521Z,3.10
2023-02-14T22:12:01.467Z,3.00
2023-02-14T22:14:35.118Z,3.50
2023-02-14T22:17:09.158Z,2.80
2023-02-14T22:19:43.636Z,2.90
2023-02-14T22:22:17.475Z,3.50
2023-02-14T22:24:51.517Z,2.70
2023-02-14T22:27:28.122Z,2.80
2023-02-14T22:30:02.256Z,2.30
2023-02-14T22:32:36.036Z,3.70
2023-02-14T22:35:10.706Z,2.60
2023-02-14T22:37:44.724Z,2.90
2023-02-14T22:40:18.349Z,2.50
2023-02-14T22:42:54.256Z,2.90
2023-02-14T22:45:28.027Z,3.40
2023-02-14T22:48:01.566Z,3.60
2023-02-14T22:50:37.147Z,4.60
2023-02-14T22:53:11.104Z,3.70
2023-02-14T22:55:44.848Z,3.50
2023-02-14T22:58:21.467Z,3.10
2023-02-14T23:00:55.761Z,2.60
2023-02-14T23:03:29.713Z,2.90
2023-02-14T23:06:03.959Z,3.00
2023-02-14T23:08:39.780Z,2.60
2023-02-14T23:11:15.627Z,2.90
2023-02-14T23:14:06.805Z,3.00
2023-02-14T23:16:57.414Z,5.30
2023-02-14T23:19:49.751Z,4.00
2023-02-14T23:22:25.880Z,4.70
2023-02-14T23:25:00.950Z,3.00
2023-02-14T23:27:37.783Z,3.50
2023-02-14T23:30:15.216Z,3.30
2023-02-14T23:32:49.170Z,3.70
2023-02-14T23:35:22.887Z,2.40
2023-02-14T23:37:56.746Z,3.00
2023-02-14T23:40:30.622Z,4.10
2023-02-14T23:43:04.172Z,3.80
2023-02-14T23:45:37.813Z,3.30
2023-02-14T23:48:12.080Z,2.20
2023-02-14T23:50:48.123Z,2.70
2023-02-14T23:53:22.098Z,3.60
2023-02-14T23:55:56.026Z,3.30
2023-02-14T23:58:29.567Z,3.80
